createdAt,value
2024-05-09T00:00:01.056Z,9.463155
2024-05-09T00:01:01.071Z,9.463146
2024-05-09T00:02:01.074Z,9.463156
2024-05-09T00:03:01.348Z,9.463119
2024-05-09T00:04:01.058Z,9.463112
2024-05-09T00:05:01.098Z,9.463064
2024-05-09T00:06:01.188Z,9.463111
2024-05-09T00:07:01.030Z,9.463138
2024-05-09T00:08:01.212Z,9.463190
2024-05-09T00:09:01.007Z,9.463253
2024-05-09T00:10:00.957Z,9.463164
2024-05-09T00:11:01.051Z,9.463148
2024-05-09T00:12:01.141Z,9.463060
2024-05-09T00:13:01.004Z,9.463274
2024-05-09T00:14:01.036Z,9.463199
2024-05-09T00:15:00.923Z,9.463239
2024-05-09T00:16:00.923Z,9.463005
2024-05-09T00:17:01.083Z,9.462969
2024-05-09T00:18:01.384Z,9.463032
2024-05-09T00:19:01.013Z,9.462838
2024-05-09T00:20:00.960Z,9.462976
2024-05-09T00:21:00.997Z,9.463006
2024-05-09T00:22:00.915Z,9.463041
2024-05-09T00:23:00.881Z,9.463030
2024-05-09T00:24:00.861Z,9.463077
2024-05-09T00:25:00.878Z,9.463070
2024-05-09T00:26:00.902Z,9.462985
2024-05-09T00:27:00.860Z,9.463025
2024-05-09T00:28:00.955Z,9.463035
2024-05-09T00:29:00.895Z,9.463078
2024-05-09T00:30:00.807Z,9.463075
2024-05-09T00:31:00.810Z,9.462985
2024-05-09T00:32:00.894Z,9.462935
2024-05-09T00:33:01.095Z,9.462961
2024-05-09T00:34:01.090Z,9.462981
2024-05-09T00:35:00.829Z,9.463024
2024-05-09T00:36:00.761Z,9.463022
2024-05-09T00:37:00.803Z,9.463047
2024-05-09T00:38:01.240Z,9.463115
2024-05-09T00:39:00.743Z,9.463064
2024-05-09T00:40:00.733Z,9.463043
2024-05-09T00:41:00.913Z,9.462930
2024-05-09T00:42:00.752Z,9.462882
2024-05-09T00:43:00.725Z,9.462883
2024-05-09T00:44:00.769Z,9.462853
2024-05-09T00:45:00.704Z,9.463006
2024-05-09T00:46:00.695Z,9.463085
2024-05-09T00:47:00.746Z,9.463112
2024-05-09T00:48:01.111Z,9.462991
2024-05-09T00:49:00.813Z,9.463072
2024-05-09T00:50:00.875Z,9.463046
2024-05-09T00:51:00.837Z,9.463006
2024-05-09T00:52:00.671Z,9.462944
2024-05-09T00:53:00.735Z,9.462915
2024-05-09T00:54:00.652Z,9.462876
2024-05-09T00:55:00.696Z,9.463306
2024-05-09T00:56:00.702Z,9.463014
2024-05-09T00:57:00.646Z,9.462922
2024-05-09T00:58:00.640Z,9.462904
2024-05-09T00:59:00.699Z,9.462971
2024-05-09T01:00:00.657Z,9.463005
2024-05-09T01:01:00.727Z,9.462975
2024-05-09T01:02:00.657Z,9.462944
2024-05-09T01:03:00.750Z,9.463003
2024-05-09T01:04:00.672Z,9.462979
2024-05-09T01:05:00.741Z,9.463021
2024-05-09T01:06:00.580Z,9.463023
2024-05-09T01:07:00.568Z,9.463003
2024-05-09T01:08:00.713Z,9.462985
2024-05-09T01:09:00.540Z,9.462966
2024-05-09T01:10:00.536Z,9.462947
2024-05-09T01:11:00.732Z,9.462998
2024-05-09T01:12:00.685Z,9.462956
2024-05-09T01:13:00.543Z,9.463007
2024-05-09T01:14:00.505Z,9.463059
2024-05-09T01:15:00.615Z,9.463251
2024-05-09T01:16:00.547Z,9.463482
2024-05-09T01:17:00.499Z,9.463203
2024-05-09T01:18:00.712Z,9.463082
2024-05-09T01:19:00.516Z,9.462996
2024-05-09T01:20:00.517Z,9.462836
2024-05-09T01:21:00.488Z,9.462829
2024-05-09T01:22:00.438Z,9.462873
2024-05-09T01:23:00.511Z,9.462834
2024-05-09T01:24:00.441Z,9.462827
2024-05-09T01:25:00.431Z,9.462875
2024-05-09T01:26:00.616Z,9.463010
2024-05-09T01:27:00.400Z,9.462997
2024-05-09T01:28:00.403Z,9.462988
2024-05-09T01:29:00.460Z,9.462866
2024-05-09T01:30:00.455Z,9.462733
2024-05-09T01:31:00.402Z,9.462965
2024-05-09T01:32:00.512Z,9.462979
2024-05-09T01:33:00.523Z,9.462623
2024-05-09T01:34:00.461Z,9.462855
2024-05-09T01:35:00.453Z,9.462676
2024-05-09T01:36:00.345Z,9.462406
2024-05-09T01:37:00.357Z,9.462955
2024-05-09T01:38:00.476Z,9.462650
2024-05-09T01:39:00.313Z,9.462932
2024-05-09T01:40:00.316Z,9.463096
2024-05-09T01:41:00.463Z,9.462955
2024-05-09T01:42:00.339Z,9.462892
2024-05-09T01:43:00.313Z,9.462948
2024-05-09T01:44:00.437Z,9.462939
2024-05-09T01:45:00.359Z,9.462902
2024-05-09T01:46:00.269Z,9.463074
2024-05-09T01:47:00.307Z,9.463266
2024-05-09T01:48:00.726Z,9.462985
2024-05-09T01:49:00.346Z,9.463170
2024-05-09T01:50:00.363Z,9.463170
2024-05-09T01:51:00.286Z,9.463170
2024-05-09T01:52:00.269Z,9.463170
2024-05-09T01:53:00.278Z,9.463170
2024-05-09T01:54:00.237Z,9.463170
2024-05-09T01:55:02.759Z,9.463170
2024-05-09T01:56:00.260Z,9.463170
2024-05-09T01:57:00.199Z,9.463170
2024-05-09T01:58:00.234Z,9.463170
2024-05-09T01:59:00.243Z,9.463170
2024-05-09T02:00:00.210Z,9.463170
2024-05-09T02:01:00.234Z,9.462876
2024-05-09T02:02:00.355Z,9.462965
2024-05-09T02:03:00.374Z,9.462981
2024-05-09T02:04:00.416Z,9.463068
2024-05-09T02:05:00.565Z,9.463025
2024-05-09T02:06:00.158Z,9.463144
2024-05-09T02:07:00.160Z,9.463051
2024-05-09T02:08:00.620Z,9.463037
2024-05-09T02:09:00.094Z,9.463018
2024-05-09T02:10:00.178Z,9.463121
2024-05-09T02:11:00.225Z,9.463063
2024-05-09T02:12:00.181Z,9.462941
2024-05-09T02:13:00.101Z,9.462887
2024-05-09T02:14:00.285Z,9.463008
2024-05-09T02:15:00.154Z,9.463052
2024-05-09T02:16:00.093Z,9.463059
2024-05-09T02:17:00.135Z,9.462870
2024-05-09T02:18:00.144Z,9.463004
2024-05-09T02:19:00.112Z,9.463062
2024-05-09T02:20:00.055Z,9.463158
2024-05-09T02:21:00.183Z,9.462924
2024-05-09T02:22:00.045Z,9.462819
2024-05-09T02:23:00.097Z,9.462806
2024-05-09T02:23:59.998Z,9.462896
2024-05-09T02:24:59.991Z,9.462861
2024-05-09T02:26:00.068Z,9.463109
2024-05-09T02:26:59.976Z,9.462924
2024-05-09T02:28:00.015Z,9.463124
2024-05-09T02:29:00.179Z,9.463010
2024-05-09T02:29:59.962Z,9.462803
2024-05-09T02:30:59.943Z,9.462884
2024-05-09T02:32:00.098Z,9.462981
2024-05-09T02:33:00.163Z,9.462994
2024-05-09T02:34:00.058Z,9.462775
2024-05-09T02:34:59.975Z,9.462656
2024-05-09T02:35:59.931Z,9.463009
2024-05-09T02:36:59.908Z,9.462902
2024-05-09T02:38:00.131Z,9.462909
2024-05-09T02:38:59.926Z,9.462943
2024-05-09T02:39:59.893Z,9.462977
2024-05-09T02:40:59.953Z,9.463006
2024-05-09T02:41:59.876Z,9.463113
2024-05-09T02:42:59.873Z,9.463133
2024-05-09T02:43:59.961Z,9.462976
2024-05-09T02:44:59.864Z,9.462942
2024-05-09T02:45:59.855Z,9.462947
2024-05-09T02:46:59.864Z,9.462918
2024-05-09T02:48:00.190Z,9.462977
2024-05-09T02:48:59.968Z,9.463005
2024-05-09T02:50:00.003Z,9.463029
2024-05-09T02:50:59.990Z,9.463041
2024-05-09T02:51:59.814Z,9.462998
2024-05-09T02:52:59.839Z,9.462999
2024-05-09T02:53:59.813Z,9.462942
2024-05-09T02:54:59.867Z,9.462966
2024-05-09T02:55:59.834Z,9.462954
2024-05-09T02:56:59.772Z,9.462902
2024-05-09T02:57:59.819Z,9.462938
2024-05-09T02:58:59.869Z,9.463101
2024-05-09T02:59:59.754Z,9.463069
2024-05-09T03:00:59.792Z,9.462969
2024-05-09T03:01:59.856Z,9.462959
2024-05-09T03:02:59.975Z,9.463104
2024-05-09T03:03:59.901Z,9.463058
2024-05-09T03:04:59.856Z,9.463018
2024-05-09T03:05:59.717Z,9.463179
2024-05-09T03:06:59.708Z,9.463209
2024-05-09T03:07:59.739Z,9.463018
2024-05-09T03:08:59.858Z,9.463320
2024-05-09T03:09:59.703Z,9.463051
2024-05-09T03:10:59.789Z,9.463418
2024-05-09T03:11:59.775Z,9.463305
2024-05-09T03:12:59.669Z,9.463752
2024-05-09T03:13:59.710Z,9.463070
2024-05-09T03:14:59.693Z,9.462939
2024-05-09T03:15:59.657Z,9.463008
2024-05-09T03:16:59.687Z,9.462929
2024-05-09T03:17:59.970Z,9.462976
2024-05-09T03:18:59.786Z,9.463038
2024-05-09T03:19:59.678Z,9.463120
2024-05-09T03:20:59.783Z,9.462969
2024-05-09T03:21:59.608Z,9.462824
2024-05-09T03:22:59.622Z,9.462938
2024-05-09T03:23:59.599Z,9.462893
2024-05-09T03:24:59.595Z,9.462980
2024-05-09T03:25:59.813Z,9.462996
2024-05-09T03:26:59.581Z,9.462924
2024-05-09T03:27:59.887Z,9.462994
2024-05-09T03:28:59.679Z,9.462977
2024-05-09T03:29:59.554Z,9.462850
2024-05-09T03:30:59.576Z,9.462916
2024-05-09T03:31:59.824Z,9.462955
2024-05-09T03:32:59.735Z,9.462881
2024-05-09T03:33:59.726Z,9.462871
2024-05-09T03:34:59.604Z,9.462852
2024-05-09T03:35:59.540Z,9.462914
2024-05-09T03:36:59.529Z,9.462961
2024-05-09T03:37:59.548Z,9.463088
2024-05-09T03:38:59.543Z,9.463015
2024-05-09T03:39:59.493Z,9.462990
2024-05-09T03:40:59.619Z,9.463050
2024-05-09T03:41:59.477Z,9.463056
2024-05-09T03:42:59.471Z,9.462966
2024-05-09T03:43:59.495Z,9.462974
2024-05-09T03:44:59.470Z,9.463034
2024-05-09T03:45:59.515Z,9.462980
2024-05-09T03:46:59.499Z,9.463084
2024-05-09T03:47:59.567Z,9.463051
2024-05-09T03:48:59.491Z,9.462977
2024-05-09T03:49:59.444Z,9.463014
2024-05-09T03:50:59.482Z,9.463005
2024-05-09T03:51:59.415Z,9.462886
2024-05-09T03:52:59.474Z,9.462840
2024-05-09T03:53:59.403Z,9.462983
2024-05-09T03:54:59.406Z,9.463053
2024-05-09T03:55:59.449Z,9.462962
2024-05-09T03:56:59.378Z,9.462940
2024-05-09T03:57:59.568Z,9.463223
2024-05-09T03:58:59.429Z,9.462934
2024-05-09T03:59:59.403Z,9.462972
2024-05-09T04:00:59.421Z,9.463003
2024-05-09T04:01:59.571Z,9.463154
2024-05-09T04:02:59.614Z,9.463115
2024-05-09T04:03:59.395Z,9.463119
2024-05-09T04:04:59.357Z,9.462988
2024-05-09T04:05:59.366Z,9.462570
2024-05-09T04:06:59.332Z,9.462929
2024-05-09T04:07:59.365Z,9.463026
2024-05-09T04:08:59.333Z,9.463304
2024-05-09T04:09:59.306Z,9.463331
2024-05-09T04:10:59.462Z,9.463042
2024-05-09T04:11:59.492Z,9.462945
2024-05-09T04:12:59.282Z,9.463052
2024-05-09T04:13:59.315Z,9.462966
2024-05-09T04:14:59.265Z,9.463061
2024-05-09T04:15:59.334Z,9.463080
2024-05-09T04:16:59.299Z,9.463002
2024-05-09T04:18:00.035Z,9.463202
2024-05-09T04:18:59.288Z,9.463202
2024-05-09T04:19:59.281Z,9.463012
2024-05-09T04:20:59.365Z,9.463481
2024-05-09T04:21:59.234Z,9.463049
2024-05-09T04:22:59.239Z,9.463397
2024-05-09T04:23:59.198Z,9.463678
2024-05-09T04:24:59.214Z,9.463441
2024-05-09T04:25:59.270Z,9.463218
2024-05-09T04:26:59.223Z,9.462987
2024-05-09T04:27:59.194Z,9.463012
2024-05-09T04:28:59.218Z,9.463025
2024-05-09T04:29:59.177Z,9.463045
2024-05-09T04:30:59.162Z,9.462957
2024-05-09T04:31:59.288Z,9.462996
2024-05-09T04:32:59.301Z,9.463161
2024-05-09T04:33:59.238Z,9.463158
2024-05-09T04:34:59.212Z,9.462961
2024-05-09T04:35:59.183Z,9.463201
2024-05-09T04:36:59.125Z,9.463134
2024-05-09T04:37:59.159Z,9.462860
2024-05-09T04:38:59.102Z,9.463020
2024-05-09T04:39:59.092Z,9.463099
2024-05-09T04:40:59.163Z,9.463280
2024-05-09T04:41:59.086Z,9.462603
2024-05-09T04:42:59.073Z,9.462774
2024-05-09T04:43:59.091Z,9.462908
2024-05-09T04:44:59.050Z,9.462891
2024-05-09T04:45:59.084Z,9.463038
2024-05-09T04:46:59.114Z,9.462938
2024-05-09T04:47:59.543Z,9.462993
2024-05-09T04:48:59.122Z,9.462999
2024-05-09T04:49:59.059Z,9.463170
2024-05-09T04:50:59.048Z,9.463947
2024-05-09T04:51:59.020Z,9.463547
2024-05-09T04:52:59.043Z,9.463145
2024-05-09T04:53:58.990Z,9.463129
2024-05-09T04:54:59.154Z,9.463024
2024-05-09T04:55:59.055Z,9.462556
2024-05-09T04:56:59.002Z,9.462445
2024-05-09T04:57:58.964Z,9.462288
2024-05-09T04:58:59.004Z,9.462335
2024-05-09T04:59:58.948Z,9.461951
2024-05-09T05:00:59.050Z,9.462978
2024-05-09T05:01:59.071Z,9.463015
2024-05-09T05:02:59.173Z,9.463080
2024-05-09T05:03:59.278Z,9.463122
2024-05-09T05:04:58.978Z,9.463058
2024-05-09T05:05:59.000Z,9.462976
2024-05-09T05:07:02.150Z,9.462832
2024-05-09T05:07:58.943Z,9.462973
2024-05-09T05:08:58.890Z,9.462796
2024-05-09T05:09:58.875Z,9.462767
2024-05-09T05:10:58.992Z,9.463156
2024-05-09T05:11:58.974Z,9.463140
2024-05-09T05:12:58.879Z,9.462738
2024-05-09T05:13:58.991Z,9.462909
2024-05-09T05:14:58.839Z,9.463273
2024-05-09T05:15:58.940Z,9.462811
2024-05-09T05:16:58.846Z,9.463036
2024-05-09T05:17:59.035Z,9.463060
2024-05-09T05:18:58.877Z,9.462670
2024-05-09T05:19:58.893Z,9.462799
2024-05-09T05:20:58.936Z,9.462893
2024-05-09T05:21:58.789Z,9.462772
2024-05-09T05:22:58.814Z,9.463058
2024-05-09T05:23:58.776Z,9.462993
2024-05-09T05:24:58.762Z,9.463169
2024-05-09T05:25:58.826Z,9.462946
2024-05-09T05:26:58.750Z,9.463222
2024-05-09T05:27:58.749Z,9.463140
2024-05-09T05:28:58.798Z,9.462888
2024-05-09T05:29:58.736Z,9.462970
2024-05-09T05:30:58.753Z,9.463077
2024-05-09T05:31:58.791Z,9.463062
2024-05-09T05:32:58.875Z,9.462666
2024-05-09T05:33:59.048Z,9.462893
2024-05-09T05:34:58.746Z,9.462859
2024-05-09T05:35:58.714Z,9.462974
2024-05-09T05:36:58.680Z,9.463275
2024-05-09T05:37:58.809Z,9.462918
2024-05-09T05:38:58.722Z,9.463529
2024-05-09T05:39:58.663Z,9.463379
2024-05-09T05:40:58.710Z,9.462951
2024-05-09T05:41:58.653Z,9.462996
2024-05-09T05:42:58.640Z,9.463274
2024-05-09T05:43:58.679Z,9.463438
2024-05-09T05:44:58.638Z,9.462799
2024-05-09T05:45:58.718Z,9.463012
2024-05-09T05:46:58.629Z,9.463068
2024-05-09T05:47:58.796Z,9.462693
2024-05-09T05:48:58.801Z,9.462635
2024-05-09T05:49:58.633Z,9.462845
2024-05-09T05:50:59.434Z,9.462687
2024-05-09T05:51:58.572Z,9.462540
2024-05-09T05:52:58.657Z,9.462626
2024-05-09T05:53:58.562Z,9.462866
2024-05-09T05:54:58.555Z,9.463077
2024-05-09T05:55:58.788Z,9.462928
2024-05-09T05:56:58.548Z,9.463033
2024-05-09T05:57:58.549Z,9.463127
2024-05-09T05:58:58.581Z,9.463045
2024-05-09T05:59:58.522Z,9.462959
2024-05-09T06:00:58.627Z,9.463076
2024-05-09T06:01:58.545Z,9.462999
2024-05-09T06:02:58.593Z,9.462898
2024-05-09T06:03:58.650Z,9.463017
2024-05-09T06:04:58.565Z,9.463050
2024-05-09T06:05:59.021Z,9.463024
2024-05-09T06:06:58.483Z,9.462944
2024-05-09T06:07:58.530Z,9.462907
2024-05-09T06:08:58.517Z,9.462968
2024-05-09T06:09:58.448Z,9.463104
2024-05-09T06:10:58.533Z,9.463122
2024-05-09T06:11:58.493Z,9.463129
2024-05-09T06:12:58.436Z,9.463060
2024-05-09T06:13:58.478Z,9.463067
2024-05-09T06:14:58.414Z,9.463068
2024-05-09T06:15:58.438Z,9.463064
2024-05-09T06:16:58.536Z,9.463097
2024-05-09T06:17:59.051Z,9.462900
2024-05-09T06:18:58.505Z,9.462906
2024-05-09T06:19:58.417Z,9.462994
2024-05-09T06:20:58.439Z,9.463140
2024-05-09T06:21:58.515Z,9.463036
2024-05-09T06:22:58.399Z,9.462996
2024-05-09T06:23:58.363Z,9.463093
2024-05-09T06:24:58.352Z,9.463109
2024-05-09T06:25:58.437Z,9.463087
2024-05-09T06:26:58.385Z,9.463191
2024-05-09T06:27:58.334Z,9.463140
2024-05-09T06:28:58.382Z,9.463192
2024-05-09T06:29:58.317Z,9.463197
2024-05-09T06:30:58.331Z,9.463164
2024-05-09T06:32:00.106Z,9.462935
2024-05-09T06:32:58.496Z,9.463010
2024-05-09T06:33:58.444Z,9.463054
2024-05-09T06:34:58.340Z,9.463077
2024-05-09T06:35:58.302Z,9.463173
2024-05-09T06:36:58.368Z,9.463276
2024-05-09T06:37:58.318Z,9.463108
2024-05-09T06:38:58.292Z,9.463099
2024-05-09T06:39:58.253Z,9.463028
2024-05-09T06:40:58.394Z,9.462832
2024-05-09T06:41:58.249Z,9.463053
2024-05-09T06:42:58.297Z,9.463078
2024-05-09T06:43:58.267Z,9.463098
2024-05-09T06:44:58.254Z,9.462984
2024-05-09T06:45:58.228Z,9.463040
2024-05-09T06:46:59.838Z,9.462997
2024-05-09T06:47:58.390Z,9.462931
2024-05-09T06:48:58.399Z,9.462797
2024-05-09T06:49:58.238Z,9.462925
2024-05-09T06:50:58.243Z,9.462711
2024-05-09T06:51:58.183Z,9.462770
2024-05-09T06:52:58.223Z,9.462782
2024-05-09T06:53:58.155Z,9.462751
2024-05-09T06:54:58.145Z,9.462665
2024-05-09T06:55:58.387Z,9.462894
2024-05-09T06:56:58.155Z,9.462117
2024-05-09T06:57:58.151Z,9.461977
2024-05-09T06:58:58.187Z,9.462596
2024-05-09T06:59:58.109Z,9.463087
2024-05-09T07:00:58.237Z,9.462801
2024-05-09T07:01:58.145Z,9.463001
2024-05-09T07:03:00.113Z,9.462721
2024-05-09T07:03:58.207Z,9.462611
2024-05-09T07:04:58.142Z,9.462557
2024-05-09T07:05:58.156Z,9.462603
2024-05-09T07:06:58.066Z,9.462330
2024-05-09T07:07:58.087Z,9.462370
2024-05-09T07:08:58.050Z,9.462640
2024-05-09T07:09:58.052Z,9.462796
2024-05-09T07:10:58.338Z,9.462995
2024-05-09T07:11:58.130Z,9.462992
2024-05-09T07:12:58.031Z,9.463117
2024-05-09T07:13:58.046Z,9.462995
2024-05-09T07:14:58.179Z,9.463047
2024-05-09T07:15:58.066Z,9.462668
2024-05-09T07:16:58.113Z,9.462079
2024-05-09T07:17:58.388Z,9.462379
2024-05-09T07:18:58.115Z,9.462029
2024-05-09T07:19:58.005Z,9.461666
2024-05-09T07:20:58.043Z,9.461854
2024-05-09T07:21:57.972Z,9.462009
2024-05-09T07:22:58.012Z,9.462481
2024-05-09T07:23:58.052Z,9.463056
2024-05-09T07:24:57.983Z,9.462975
2024-05-09T07:25:58.257Z,9.463057
2024-05-09T07:26:57.943Z,9.462988
2024-05-09T07:27:57.926Z,9.462946
2024-05-09T07:28:57.949Z,9.463162
2024-05-09T07:29:57.939Z,9.463147
2024-05-09T07:30:57.930Z,9.463138
2024-05-09T07:31:57.935Z,9.463129
2024-05-09T07:32:58.195Z,9.463053
2024-05-09T07:33:57.927Z,9.463013
2024-05-09T07:34:57.940Z,9.462859
2024-05-09T07:35:57.916Z,9.462930
2024-05-09T07:36:57.908Z,9.462774
2024-05-09T07:37:57.939Z,9.462839
2024-05-09T07:38:58.072Z,9.462632
2024-05-09T07:39:57.860Z,9.462703
2024-05-09T07:40:57.963Z,9.463009
2024-05-09T07:41:57.839Z,9.462970
2024-05-09T07:42:57.827Z,9.462959
2024-05-09T07:43:57.853Z,9.463267
2024-05-09T07:45:14.558Z,9.463097
2024-05-09T07:46:23.019Z,9.463094
2024-05-09T07:49:44.336Z,9.462997
2024-05-09T07:51:33.063Z,9.463058
2024-05-09T07:53:00.833Z,9.463220
2024-05-09T07:53:22.012Z,9.462536
2024-05-09T07:54:00.615Z,9.462785
2024-05-09T07:54:57.923Z,9.462546
2024-05-09T07:55:58.073Z,9.462987
2024-05-09T07:56:57.892Z,9.463082
2024-05-09T07:57:57.837Z,9.462570
2024-05-09T07:58:57.735Z,9.463075
2024-05-09T07:59:57.712Z,9.463146
2024-05-09T08:00:57.861Z,9.462749
2024-05-09T08:01:57.838Z,9.462686
2024-05-09T08:02:57.703Z,9.463177
2024-05-09T08:03:57.893Z,9.462878
2024-05-09T08:04:57.817Z,9.463644
2024-05-09T08:05:57.701Z,9.463078
2024-05-09T08:06:57.714Z,9.462996
2024-05-09T08:07:57.663Z,9.463215
2024-05-09T08:09:00.733Z,9.463082
2024-05-09T08:09:58.672Z,9.462835
2024-05-09T08:10:57.674Z,9.463184
2024-05-09T08:11:57.735Z,9.463297
2024-05-09T08:12:57.727Z,9.463230
2024-05-09T08:13:57.725Z,9.463304
2024-05-09T08:14:57.623Z,9.463112
2024-05-09T08:15:58.108Z,9.463051
2024-05-09T08:16:57.660Z,9.463093
2024-05-09T08:17:57.709Z,9.463053
2024-05-09T08:18:57.773Z,9.463191
2024-05-09T08:19:57.596Z,9.463017
2024-05-09T08:20:57.611Z,9.462964
2024-05-09T08:21:57.611Z,9.462973
2024-05-09T08:22:57.569Z,9.462833
2024-05-09T08:23:57.571Z,9.462838
2024-05-09T08:24:57.600Z,9.462914
2024-05-09T08:25:57.851Z,9.462966
2024-05-09T08:26:57.530Z,9.463053
2024-05-09T08:27:57.548Z,9.463202
2024-05-09T08:28:57.521Z,9.463086
2024-05-09T08:29:57.532Z,9.462988
2024-05-09T08:30:57.712Z,9.462761
2024-05-09T08:31:57.649Z,9.462683
2024-05-09T08:32:57.574Z,9.462683
2024-05-09T08:33:57.678Z,9.462850
2024-05-09T08:34:57.521Z,9.462916
2024-05-09T08:35:57.495Z,9.462817
2024-05-09T08:36:59.687Z,9.462886
2024-05-09T08:37:57.566Z,9.462842
2024-05-09T08:38:57.472Z,9.462703
2024-05-09T08:39:57.480Z,9.463139
2024-05-09T08:40:57.559Z,9.462949
2024-05-09T08:41:57.446Z,9.462939
2024-05-09T08:42:57.468Z,9.462964
2024-05-09T08:43:57.427Z,9.463029
2024-05-09T08:44:57.427Z,9.463014
2024-05-09T08:45:57.494Z,9.463053
2024-05-09T08:46:57.407Z,9.463053
2024-05-09T08:47:57.528Z,9.463047
2024-05-09T08:48:57.597Z,9.462963
2024-05-09T08:49:57.549Z,9.463094
2024-05-09T08:50:57.409Z,9.463112
2024-05-09T08:51:57.481Z,9.463100
2024-05-09T08:52:57.371Z,9.463135
2024-05-09T08:53:57.368Z,9.463099
2024-05-09T08:54:57.381Z,9.463078
2024-05-09T08:55:57.377Z,9.463058
2024-05-09T08:56:57.362Z,9.462980
2024-05-09T08:57:57.377Z,9.463011
2024-05-09T08:58:57.348Z,9.463064
2024-05-09T08:59:57.336Z,9.463005
2024-05-09T09:00:57.421Z,9.463158
2024-05-09T09:01:57.414Z,9.463063
2024-05-09T09:02:57.329Z,9.463100
2024-05-09T09:03:57.388Z,9.462945
2024-05-09T09:04:57.370Z,9.462901
2024-05-09T09:05:57.363Z,9.463058
2024-05-09T09:06:58.766Z,9.462982
2024-05-09T09:07:57.284Z,9.462864
2024-05-09T09:08:57.838Z,9.462902
2024-05-09T09:09:57.310Z,9.462823
2024-05-09T09:10:57.292Z,9.462835
2024-05-09T09:11:57.276Z,9.462976
2024-05-09T09:12:57.285Z,9.463016
2024-05-09T09:13:57.232Z,9.462987
2024-05-09T09:14:57.232Z,9.463040
2024-05-09T09:15:57.467Z,9.462960
2024-05-09T09:16:57.219Z,9.462899
2024-05-09T09:17:57.362Z,9.462924
2024-05-09T09:18:57.729Z,9.462877
2024-05-09T09:19:57.309Z,9.462874
2024-05-09T09:20:57.243Z,9.462884
2024-05-09T09:21:57.319Z,9.462835
2024-05-09T09:22:57.183Z,9.462952
2024-05-09T09:23:57.155Z,9.463026
2024-05-09T09:24:57.173Z,9.462893
2024-05-09T09:25:57.161Z,9.463045
2024-05-09T09:26:57.299Z,9.463173
2024-05-09T09:27:57.581Z,9.463107
2024-05-09T09:28:57.164Z,9.462990
2024-05-09T09:29:57.358Z,9.463026
2024-05-09T09:30:57.318Z,9.462775
2024-05-09T09:31:57.269Z,9.462608
2024-05-09T09:32:57.355Z,9.462797
2024-05-09T09:33:57.668Z,9.462893
2024-05-09T09:34:57.308Z,9.462941
2024-05-09T09:35:57.418Z,9.462889
2024-05-09T09:36:57.154Z,9.463132
2024-05-09T09:37:57.117Z,9.463011
2024-05-09T09:38:57.048Z,9.463211
2024-05-09T09:39:57.083Z,9.463066
2024-05-09T09:40:57.191Z,9.463254
2024-05-09T09:41:57.024Z,9.462819
2024-05-09T09:42:57.066Z,9.463007
2024-05-09T09:43:57.008Z,9.463011
2024-05-09T09:45:04.314Z,9.462729
2024-05-09T09:45:58.507Z,9.462877
2024-05-09T09:46:57.088Z,9.462635
2024-05-09T09:47:57.198Z,9.461952
2024-05-09T09:48:57.051Z,9.462982
2024-05-09T09:49:57.039Z,9.462997
2024-05-09T09:50:56.969Z,9.463056
2024-05-09T09:51:57.001Z,9.462996
2024-05-09T09:52:56.940Z,9.463046
2024-05-09T09:53:56.931Z,9.462954
2024-05-09T09:54:56.942Z,9.462937
2024-05-09T09:55:56.937Z,9.462871
2024-05-09T09:56:56.914Z,9.462976
2024-05-09T09:57:56.953Z,9.462931
2024-05-09T09:58:56.897Z,9.462961
2024-05-09T09:59:56.888Z,9.462923
2024-05-09T10:00:57.338Z,9.462883
2024-05-09T10:01:57.085Z,9.463032
2024-05-09T10:02:57.059Z,9.462955
2024-05-09T10:03:56.995Z,9.462996
2024-05-09T10:04:57.072Z,9.462970
2024-05-09T10:05:56.899Z,9.462793
2024-05-09T10:06:56.859Z,9.462888
2024-05-09T10:07:56.842Z,9.462913
2024-05-09T10:08:56.838Z,9.462947
2024-05-09T10:09:56.974Z,9.463085
2024-05-09T10:10:56.888Z,9.462858
2024-05-09T10:12:56.892Z,9.462940
2024-05-09T10:13:56.807Z,9.462875
2024-05-09T10:14:56.796Z,9.463026
2024-05-09T10:15:56.817Z,9.462969
2024-05-09T10:16:56.781Z,9.463048
2024-05-09T10:17:56.862Z,9.463071
2024-05-09T10:18:56.959Z,9.463037
2024-05-09T10:19:56.838Z,9.462976
2024-05-09T10:20:56.752Z,9.463037
2024-05-09T10:21:56.809Z,9.463110
2024-05-09T10:22:56.753Z,9.462755
2024-05-09T10:23:56.733Z,9.463089
2024-05-09T10:24:56.776Z,9.462670
2024-05-09T10:25:57.026Z,9.462727
2024-05-09T10:26:56.695Z,9.462604
2024-05-09T10:27:56.777Z,9.462537
2024-05-09T10:28:56.679Z,9.462664
2024-05-09T10:29:56.680Z,9.463042
2024-05-09T10:30:56.744Z,9.463023
2024-05-09T10:31:56.649Z,9.462943
2024-05-09T10:32:56.826Z,9.462938
2024-05-09T10:33:56.849Z,9.462678
2024-05-09T10:34:56.871Z,9.462809
2024-05-09T10:35:56.646Z,9.462766
2024-05-09T10:36:56.651Z,9.463074
2024-05-09T10:37:56.611Z,9.462847
2024-05-09T10:38:56.618Z,9.463243
2024-05-09T10:39:56.652Z,9.462682
2024-05-09T10:40:56.628Z,9.463099
2024-05-09T10:41:56.607Z,9.463640
2024-05-09T10:42:56.648Z,9.462678
2024-05-09T10:43:56.593Z,9.462330
2024-05-09T10:44:56.594Z,9.462154
2024-05-09T10:45:56.681Z,9.462154
2024-05-09T10:46:56.612Z,9.462154
2024-05-09T10:47:56.712Z,9.462154
2024-05-09T10:48:56.726Z,9.462154
2024-05-09T10:49:56.626Z,9.462154
2024-05-09T10:50:56.546Z,9.462154
2024-05-09T10:51:56.628Z,9.462154
2024-05-09T10:52:56.517Z,9.462154
2024-05-09T10:53:56.505Z,9.462154
2024-05-09T10:54:56.634Z,9.462154
2024-05-09T10:55:56.495Z,9.462154
2024-05-09T10:56:56.503Z,9.462154
2024-05-09T10:57:56.559Z,9.462154
2024-05-09T10:58:56.485Z,9.463036
2024-05-09T10:59:56.489Z,9.463125
2024-05-09T11:00:56.551Z,9.463049
2024-05-09T11:01:56.805Z,9.463005
2024-05-09T11:02:56.487Z,9.462976
2024-05-09T11:03:56.668Z,9.463003
2024-05-09T11:04:56.634Z,9.462923
2024-05-09T11:05:56.561Z,9.462940
2024-05-09T11:06:56.504Z,9.462812
2024-05-09T11:07:56.416Z,9.462988
2024-05-09T11:08:56.409Z,9.463006
2024-05-09T11:09:56.415Z,9.463012
2024-05-09T11:10:56.500Z,9.462980
2024-05-09T11:11:56.898Z,9.463115
2024-05-09T11:12:56.439Z,9.462726
2024-05-09T11:13:56.539Z,9.462980
2024-05-09T11:14:56.371Z,9.463127
2024-05-09T11:15:56.493Z,9.463166
2024-05-09T11:16:56.354Z,9.463187
2024-05-09T11:17:56.580Z,9.462864
2024-05-09T11:18:56.844Z,9.462952
2024-05-09T11:19:56.456Z,9.462667
2024-05-09T11:20:56.549Z,9.463181
2024-05-09T11:21:56.630Z,9.463340
2024-05-09T11:22:56.324Z,9.462900
2024-05-09T11:23:56.327Z,9.462857
2024-05-09T11:24:56.385Z,9.462898
2024-05-09T11:25:56.312Z,9.462971
2024-05-09T11:26:56.295Z,9.462944
2024-05-09T11:27:56.416Z,9.463151
2024-05-09T11:28:56.297Z,9.462961
2024-05-09T11:29:56.295Z,9.462642
2024-05-09T11:30:56.316Z,9.462748
2024-05-09T11:31:56.336Z,9.462730
2024-05-09T11:32:56.404Z,9.462918
2024-05-09T11:33:56.348Z,9.463204
2024-05-09T11:34:56.243Z,9.463013
2024-05-09T11:35:56.241Z,9.463081
2024-05-09T11:36:56.292Z,9.463086
2024-05-09T11:37:56.242Z,9.462573
2024-05-09T11:38:56.277Z,9.462838
2024-05-09T11:39:56.269Z,9.463103
2024-05-09T11:40:56.261Z,9.463081
2024-05-09T11:41:56.208Z,9.463057
2024-05-09T11:42:56.228Z,9.462949
2024-05-09T11:43:56.211Z,9.463000
2024-05-09T11:44:56.205Z,9.463177
2024-05-09T11:45:56.281Z,9.463131
2024-05-09T11:46:56.177Z,9.463653
2024-05-09T11:47:56.370Z,9.463152